Freetown, Kentucky
Current Conditions -  °F | °C
As of 12:15 AM on Saturday 29 Nov 2014 (Local Time) from KGLW Reporting Station
Clear Clear  
Wind Chill: 36°   Ceiling: Unl
Heat Index: 42°   Visibility: 10mi
Dew Point: 20°   Wind: 9mph
Humidity: 42%   Direction: 210°SSW
Pressure: 30.09"   Gusts: NA
Location:  36.6549°N, 85.8315°W
Report Text: KGLW 290615Z AUTO 21008KT 10SM CLR 06/M06 A3009 RMK AO2 T00551064
Loading
Personal Weather Stations






























Interactive Weather Map New forecast layout! Learn more

10-Day Weather Forecast

Advertisements
Track Severe Weather on mobile